Hlavní strana
METAR-TAF:

METAR-TAF

Letiště :

Columbus, Ohio, Spojené státy americké

zeměpisná šířka: 39-59-42N, zeměpisná délka: 082-52-35W, výška: 248 m

Aktuální stav počasí

Zpráva byla vytvořena před 52 minutami, v 09:51 UTC
Bezvětří
Teplota -1°C
Vlhkost vzduchu 86%
Tlak 1024 hPa
Viditelnost: 16.1 km
Skoro jasno ve výšce 3000 ft

METAR: KCMH 250951Z 00000KT 10SM FEW030 M01/M03 A3023 RMK AO2 SLP240 T10061028

Čas: 05:43 (10:43 UTC)

Předpověď počasí

Zpráva byla vytvořena před 42 minutami, v 10:01 UTC
Předpověď platná od 25 v 10 UTC do 26 v 06 UTC
Severní vítr 5 kt
Viditelnost: 10 km
Polojasno ve výšce 2500 ft
Od 25 v 1200 UTC
Západní vítr 8 kt
Viditelnost: 10 km
Polojasno ve výšce 2500 ft
Od 25 v 2300 UTC
Západoseverozápadní vítr 7 kt
Viditelnost: 10 km
Polojasno ve výšce 25000 ft

TAF: KCMH 251001Z 2510/2606 36005KT P6SM SCT025 FM251200 28008KT P6SM SCT025 FM252300 30007KT P6SM SCT250

Stav a předpovědi počasí z více než 4 000 letišť (zprávy METAR a TAF).

Červené a žluté tečky na mapě představují dostupné meteorologické stanice.

Když kurzor umístíte na tečku, zobrazí se název stanice.

Pak kliknutím zobrazíte stav a předpověď počasí.

Chcete-li změnit mapu, kliknutím na zelené tlačítko se znaménkem +mapu přiblížíte, kliknutím na zelené tlačítko se znaménkem – mapu oddálíte a kliknutím na zelené šipky přejdete na sousední mapy.


METAR-TAF: